Overview Statistics Trail Chart Weather Telemetry Raw packets
 

This is the latest recevied weather packets stored in our database for station/object EA2FBA-10. If no packets are shown the sender has not sent any weather packets the latest 10 day(s).

<< 3 4 5 6 7 8 9 >>
Time Temp. Humidity Pressure Rain* Wind** Luminosity Snow
1788562581 22.78° C 68% 961.9 hPa - - - -
1788561681 22.22° C 69% 961.9 hPa - - - -
1788560790 22.22° C 70% 962 hPa - - - -
1788560781 22.22° C 70% 962 hPa - - - -
1788559881 22.22° C 71% 961.9 hPa - - - -
1788558980 21.67° C 73% 962 hPa - - - -
1788558090 22.22° C 71% 962.1 hPa - - - -
1788558080 22.22° C 71% 962.1 hPa - - - -
1788557190 22.22° C 70% 962.1 hPa - - - -
1788557180 22.22° C 70% 962.1 hPa - - - -
1788556280 22.78° C 68% 962 hPa - - - -
1788555389 22.78° C 67% 962.2 hPa - - - -
1788555380 22.78° C 67% 962.2 hPa - - - -
1788554489 23.89° C 64% 962.1 hPa - - - -
1788554480 23.89° C 64% 962.1 hPa - - - -
1788553579 24.44° C 62% 961.8 hPa - - - -
1788552689 25° C 59% 961.7 hPa - - - -
1788552679 25° C 59% 961.7 hPa - - - -
1788551779 25.56° C 57% 961.5 hPa - - - -
1788551557 26.11° C 52% 961.1 hPa - - - -
1788550888 26.11° C 52% 961.1 hPa - - - -
1788550879 26.11° C 52% 961.1 hPa - - - -
1788549988 26.11° C 51% 960.9 hPa - - - -
1788549979 26.11° C 51% 960.9 hPa - - - -
1788549088 26.67° C 48% 960.3 hPa - - - -

* Rain since midnight (hover to see other rain measurements)
** Current wind speed in m/s (hover to see current wind gust speed)